Time;durP1;ratioP1;P1;durP2;ratioP2;P2;SDS_P1;SDS_P2;PMS_P1;PMS_P2;Temp;Humidity;BMP_temperature;BMP_pressure;BME280_temperature;BME280_humidity;BME280_pressure;Samples;Min_cycle;Max_cycle;Signal;HPM_P1;HPM_P2
2024/02/10 00:01:49;;;;;;;7.68;4.05;;;10.80;99.90;;;;;;4985505;28;20042;-82
2024/02/10 00:04:18;;;;;;;6.10;3.47;;;10.80;99.90;;;;;;5001922;28;20046;-83
2024/02/10 00:06:45;;;;;;;8.45;3.58;;;10.80;99.90;;;;;;4985193;28;20034;-82
2024/02/10 00:09:12;;;;;;;6.72;3.47;;;10.80;99.90;;;;;;5018846;28;20014;-83
2024/02/10 00:11:38;;;;;;;6.28;3.28;;;10.80;99.90;;;;;;4990543;28;20466;-83
2024/02/10 00:14:08;;;;;;;5.55;3.40;;;10.80;99.90;;;;;;4995580;28;20052;-83
2024/02/10 00:16:33;;;;;;;7.38;3.70;;;10.80;99.90;;;;;;4961743;28;20080;-83
2024/02/10 00:19:06;;;;;;;7.57;3.60;;;10.80;99.90;;;;;;4961528;28;20022;-83
2024/02/10 00:21:32;;;;;;;7.60;3.72;;;10.90;99.90;;;;;;4978462;28;20027;-83
2024/02/10 00:24:02;;;;;;;5.25;3.63;;;10.90;99.90;;;;;;4961451;28;20031;-83
2024/02/10 00:26:31;;;;;;;5.00;3.63;;;10.90;99.90;;;;;;4961712;28;20073;-82
2024/02/10 00:28:57;;;;;;;7.55;4.00;;;10.90;99.90;;;;;;4977095;28;20030;-82
2024/02/10 00:31:23;;;;;;;7.88;4.07;;;10.90;99.90;;;;;;4977358;28;20030;-83
2024/02/10 00:33:50;;;;;;;8.82;3.83;;;10.90;99.90;;;;;;4961785;28;20038;-83
2024/02/10 00:36:17;;;;;;;7.07;3.67;;;10.90;99.90;;;;;;4961219;28;20037;-83
2024/02/10 00:38:43;;;;;;;6.28;3.45;;;10.90;99.90;;;;;;4977269;28;20052;-83
2024/02/10 00:41:13;;;;;;;8.45;3.72;;;10.90;99.90;;;;;;4961571;28;20033;-83
2024/02/10 00:43:43;;;;;;;6.05;3.45;;;10.90;99.90;;;;;;4961557;28;20121;-84
2024/02/10 00:46:15;;;;;;;5.70;3.50;;;10.90;99.90;;;;;;4977734;28;20037;-83
2024/02/10 00:48:42;;;;;;;6.32;3.42;;;10.90;99.90;;;;;;4977911;28;20038;-82
2024/02/10 00:51:08;;;;;;;6.40;3.70;;;10.90;99.90;;;;;;4995437;28;20030;-82
2024/02/10 00:53:40;;;;;;;4.25;2.95;;;10.90;99.90;;;;;;4965682;28;20437;-83
2024/02/10 00:56:10;;;;;;;6.22;3.45;;;10.90;99.90;;;;;;4981673;28;20033;-83
2024/02/10 00:58:40;;;;;;;6.43;3.80;;;10.90;99.90;;;;;;4981011;28;20058;-82
2024/02/10 01:01:12;;;;;;;5.00;3.10;;;10.90;99.90;;;;;;4981526;28;20113;-83
2024/02/10 01:03:44;;;;;;;5.10;3.45;;;10.90;99.90;;;;;;4965350;28;20058;-83
2024/02/10 01:06:12;;;;;;;6.93;3.53;;;10.90;99.90;;;;;;4982016;28;20085;-84
2024/02/10 01:08:46;;;;;;;4.70;3.55;;;10.90;99.90;;;;;;4981627;28;20038;-83
2024/02/10 01:11:13;;;;;;;6.03;3.40;;;10.90;99.90;;;;;;4981328;28;20058;-83
2024/02/10 01:13:43;;;;;;;4.88;3.00;;;10.90;99.90;;;;;;4981027;28;20030;-83
2024/02/10 01:16:16;;;;;;;5.87;3.10;;;10.90;99.90;;;;;;4981019;28;20034;-83
2024/02/10 01:18:48;;;;;;;7.68;3.30;;;10.90;99.90;;;;;;4964600;28;20038;-83
2024/02/10 01:21:15;;;;;;;4.88;3.33;;;10.90;99.90;;;;;;4981130;28;20514;-83
2024/02/10 01:23:42;;;;;;;5.13;3.42;;;10.90;99.90;;;;;;4965122;28;20031;-83
2024/02/10 01:26:12;;;;;;;5.25;2.88;;;10.90;99.90;;;;;;4998158;28;20150;-83
2024/02/10 01:28:38;;;;;;;4.82;2.88;;;10.90;99.90;;;;;;4980542;28;20045;-83
2024/02/10 01:31:07;;;;;;;4.65;3.15;;;10.90;99.90;;;;;;4965166;28;20116;-84
2024/02/10 01:33:33;;;;;;;6.15;3.15;;;10.90;99.90;;;;;;4984096;28;20027;-83
2024/02/10 01:35:59;;;;;;;4.13;2.60;;;10.90;99.90;;;;;;5002569;28;20026;-82
2024/02/10 01:38:26;;;;;;;5.13;2.92;;;10.90;99.90;;;;;;5004417;28;20049;-82
2024/02/10 01:40:51;;;;;;;6.60;3.42;;;10.90;99.90;;;;;;5020749;28;20045;-82
2024/02/10 01:43:18;;;;;;;6.88;3.08;;;10.90;99.90;;;;;;5021331;28;20027;-83
2024/02/10 01:45:45;;;;;;;5.18;3.17;;;10.90;99.90;;;;;;5001128;28;20026;-84
2024/02/10 01:48:11;;;;;;;5.13;2.90;;;10.90;99.90;;;;;;4967754;28;20027;-83
2024/02/10 01:50:36;;;;;;;4.15;2.30;;;10.90;99.90;;;;;;4983995;28;20030;-83
2024/02/10 01:53:04;;;;;;;5.30;2.97;;;10.90;99.90;;;;;;4983508;28;20062;-82
2024/02/10 01:55:30;;;;;;;5.35;2.97;;;11.00;99.90;;;;;;4999597;28;20026;-83
2024/02/10 01:58:02;;;;;;;3.67;2.72;;;10.90;99.90;;;;;;4980130;28;20034;-84
2024/02/10 02:00:28;;;;;;;5.22;3.03;;;11.00;99.90;;;;;;4979595;28;20030;-83
2024/02/10 02:02:59;;;;;;;5.43;3.40;;;11.00;99.90;;;;;;4978508;28;20395;-83
2024/02/10 02:05:26;;;;;;;4.85;3.03;;;11.00;99.90;;;;;;4980979;28;20023;-83
2024/02/10 02:07:54;;;;;;;4.60;3.33;;;11.00;99.90;;;;;;4979859;28;20504;-83
2024/02/10 02:10:21;;;;;;;5.30;3.33;;;11.00;99.90;;;;;;4963507;28;20359;-82
2024/02/10 02:12:48;;;;;;;7.55;3.50;;;11.00;99.90;;;;;;4997219;28;20062;-83
2024/02/10 02:15:18;;;;;;;3.78;2.90;;;11.00;99.90;;;;;;4979696;28;20062;-83
2024/02/10 02:17:44;;;;;;;3.95;2.88;;;11.00;99.90;;;;;;4980012;28;20042;-82
2024/02/10 02:20:11;;;;;;;4.53;3.17;;;11.00;99.90;;;;;;4963509;28;20054;-84
2024/02/10 02:22:36;;;;;;;4.57;2.60;;;11.00;99.90;;;;;;4979211;28;20029;-82
2024/02/10 02:25:03;;;;;;;4.05;2.70;;;11.00;99.90;;;;;;4963290;28;20031;-83
2024/02/10 02:27:28;;;;;;;4.70;2.97;;;11.00;99.90;;;;;;4995962;28;20034;-83
2024/02/10 02:29:56;;;;;;;4.72;2.95;;;11.00;99.90;;;;;;4996184;28;20479;-83
2024/02/10 02:32:23;;;;;;;6.05;2.70;;;11.00;99.90;;;;;;4963198;28;20053;-83
2024/02/10 02:34:51;;;;;;;4.63;2.67;;;11.00;99.90;;;;;;4979174;28;20042;-84
2024/02/10 02:37:17;;;;;;;4.30;2.75;;;11.10;99.90;;;;;;4963804;28;20130;-83
2024/02/10 02:39:44;;;;;;;3.88;2.60;;;11.00;99.90;;;;;;4996919;28;20474;-83
2024/02/10 02:42:10;;;;;;;3.83;2.65;;;11.00;99.90;;;;;;4979673;28;20061;-83
2024/02/10 02:44:36;;;;;;;4.82;2.92;;;11.00;99.90;;;;;;4963218;28;20065;-84
2024/02/10 02:47:04;;;;;;;3.25;2.80;;;11.00;99.90;;;;;;4978817;28;20112;-83
2024/02/10 02:49:31;;;;;;;4.53;2.90;;;11.00;99.90;;;;;;4996208;28;20358;-84
2024/02/10 02:51:56;;;;;;;3.83;2.50;;;11.00;99.90;;;;;;4978651;28;20026;-82
2024/02/10 02:54:22;;;;;;;3.70;2.70;;;11.00;99.90;;;;;;4978648;28;20034;-83
2024/02/10 02:56:52;;;;;;;3.90;2.50;;;11.00;99.90;;;;;;4978664;28;20364;-82
2024/02/10 02:59:19;;;;;;;3.63;2.65;;;11.00;99.90;;;;;;4996501;28;20026;-82
2024/02/10 03:01:50;;;;;;;4.50;2.85;;;11.00;99.90;;;;;;4979736;28;20060;-82
2024/02/10 03:04:16;;;;;;;5.55;2.90;;;10.90;99.90;;;;;;4985146;28;20050;-82
2024/02/10 03:06:43;;;;;;;3.92;2.88;;;11.00;99.90;;;;;;4969014;28;20054;-82
2024/02/10 03:09:10;;;;;;;3.38;2.65;;;10.90;99.90;;;;;;4986797;28;20015;-83
2024/02/10 03:11:36;;;;;;;4.32;2.92;;;11.00;99.90;;;;;;5002837;28;20011;-84
2024/02/10 03:14:02;;;;;;;3.85;2.85;;;10.90;99.90;;;;;;5018849;28;20210;-82
2024/02/10 03:16:33;;;;;;;4.45;2.85;;;10.90;99.90;;;;;;4981088;28;20129;-83
2024/02/10 03:19:04;;;;;;;3.70;2.60;;;10.90;99.90;;;;;;4963390;28;20030;-83
2024/02/10 03:21:32;;;;;;;5.88;2.80;;;11.00;99.90;;;;;;4963620;28;20493;-83
2024/02/10 03:24:05;;;;;;;4.85;3.13;;;11.00;99.90;;;;;;4963423;28;20030;-82
2024/02/10 03:26:35;;;;;;;4.13;3.03;;;10.90;99.90;;;;;;4979393;28;20034;-83
2024/02/10 03:29:01;;;;;;;3.80;3.03;;;10.90;99.90;;;;;;4996033;28;20023;-83
2024/02/10 03:31:27;;;;;;;3.53;2.55;;;10.90;99.90;;;;;;4962464;28;20382;-84
2024/02/10 03:33:52;;;;;;;6.00;3.08;;;10.90;99.90;;;;;;4977765;28;20081;-82
2024/02/10 03:36:18;;;;;;;3.80;2.72;;;10.90;99.90;;;;;;4962096;28;20022;-83
2024/02/10 03:38:43;;;;;;;4.20;3.10;;;10.90;99.90;;;;;;4962260;28;20137;-83
2024/02/10 03:41:13;;;;;;;6.80;3.13;;;10.90;99.90;;;;;;4961534;28;20069;-82
2024/02/10 03:43:39;;;;;;;6.07;3.20;;;10.90;99.90;;;;;;4977880;28;20027;-83
2024/02/10 03:46:05;;;;;;;3.95;2.75;;;10.90;99.90;;;;;;4977570;28;20034;-83
2024/02/10 03:48:31;;;;;;;3.40;3.10;;;10.90;99.90;;;;;;4961373;28;20076;-83
2024/02/10 03:51:00;;;;;;;3.83;3.15;;;10.90;99.90;;;;;;4977541;28;20031;-83
2024/02/10 03:53:25;;;;;;;4.65;2.88;;;10.90;99.90;;;;;;4962101;28;20081;-83
2024/02/10 03:55:56;;;;;;;4.57;3.20;;;10.90;99.90;;;;;;4977737;28;20030;-83
2024/02/10 03:58:24;;;;;;;;;;;10.90;99.90;;;;;;4963026;28;20533;-84
2024/02/10 04:00:50;;;;;;;4.15;2.90;;;10.90;99.90;;;;;;4962174;28;19910;-82
2024/02/10 04:03:17;;;;;;;5.65;3.10;;;10.90;99.90;;;;;;4960701;28;20058;-83
2024/02/10 04:05:46;;;;;;;5.05;2.60;;;10.90;99.90;;;;;;4960927;28;20116;-83
2024/02/10 04:08:18;;;;;;;5.57;3.22;;;10.90;99.90;;;;;;4961192;28;20078;-83
2024/02/10 04:10:44;;;;;;;3.97;2.63;;;10.80;99.90;;;;;;4977101;28;20030;-82
2024/02/10 04:13:10;;;;;;;3.83;2.80;;;10.80;99.90;;;;;;4960940;28;20385;-83
2024/02/10 04:15:36;;;;;;;4.38;3.28;;;10.80;99.90;;;;;;4960858;28;20027;-83
2024/02/10 04:18:03;;;;;;;3.80;2.80;;;10.80;99.90;;;;;;4976785;28;20467;-82
2024/02/10 04:20:28;;;;;;;4.68;3.10;;;10.90;99.90;;;;;;4994574;28;20466;-85
2024/02/10 04:22:55;;;;;;;3.90;2.80;;;10.90;99.90;;;;;;4976829;28;20030;-83
2024/02/10 04:25:21;;;;;;;4.57;3.08;;;10.90;99.90;;;;;;4961526;28;20034;-83
2024/02/10 04:27:47;;;;;;;3.53;2.80;;;10.90;99.90;;;;;;4967195;28;20040;-83
2024/02/10 04:30:13;;;;;;;4.05;3.10;;;10.90;99.90;;;;;;4983389;28;20023;-83
2024/02/10 04:32:46;;;;;;;3.80;2.80;;;10.80;99.90;;;;;;4967389;28;20393;-83
2024/02/10 04:35:13;;;;;;;5.05;2.85;;;10.90;99.90;;;;;;4983927;28;20206;-82
2024/02/10 04:37:48;;;;;;;5.45;3.15;;;10.80;99.90;;;;;;4984549;28;20027;-83
2024/02/10 04:40:17;;;;;;;4.22;3.03;;;10.80;99.90;;;;;;4985464;28;20359;-83
2024/02/10 04:42:43;;;;;;;4.05;2.70;;;10.80;99.90;;;;;;5004065;28;20103;-84
2024/02/10 04:45:09;;;;;;;4.32;3.10;;;10.80;99.90;;;;;;5008074;28;20030;-83
2024/02/10 04:47:34;;;;;;;5.75;3.17;;;10.80;99.90;;;;;;4992305;28;20014;-84
2024/02/10 04:50:04;;;;;;;6.45;3.25;;;10.80;99.90;;;;;;4983870;28;20034;-83
2024/02/10 04:52:29;;;;;;;4.13;3.10;;;10.80;99.90;;;;;;5000873;28;20065;-83
2024/02/10 04:54:55;;;;;;;4.85;3.13;;;10.90;99.90;;;;;;4967310;28;20046;-83
2024/02/10 04:57:28;;;;;;;5.13;3.40;;;10.80;99.90;;;;;;4982970;28;20042;-84
2024/02/10 05:00:00;;;;;;;5.85;3.08;;;10.80;99.90;;;;;;4984146;28;20049;-83
2024/02/10 05:02:26;;;;;;;3.65;2.95;;;10.80;99.90;;;;;;4967754;28;20026;-83
2024/02/10 05:04:52;;;;;;;3.53;3.05;;;10.80;99.90;;;;;;4966408;28;20061;-82
2024/02/10 05:07:18;;;;;;;4.28;2.85;;;10.80;99.90;;;;;;4966735;28;20034;-83
2024/02/10 05:09:44;;;;;;;4.75;3.13;;;10.80;99.90;;;;;;4982969;28;20034;-83
2024/02/10 05:12:10;;;;;;;4.78;3.22;;;10.90;99.90;;;;;;4982760;28;20058;-83
2024/02/10 05:14:35;;;;;;;4.70;3.60;;;10.80;99.90;;;;;;5000388;28;20108;-84
2024/02/10 05:17:02;;;;;;;4.80;3.25;;;10.80;99.90;;;;;;4966653;28;20125;-84
2024/02/10 05:19:28;;;;;;;5.60;3.28;;;10.80;99.90;;;;;;4966894;28;20454;-84
2024/02/10 05:21:56;;;;;;;4.55;2.97;;;10.80;99.90;;;;;;4982844;28;20112;-84
2024/02/10 05:24:24;;;;;;;5.53;3.55;;;10.80;99.90;;;;;;5000242;28;20056;-83
2024/02/10 05:26:49;;;;;;;5.15;3.45;;;10.70;99.90;;;;;;4983295;28;20089;-83
2024/02/10 05:29:18;;;;;;;4.78;3.08;;;10.70;99.90;;;;;;4998873;28;20027;-83
2024/02/10 05:31:47;;;;;;;4.15;3.30;;;10.70;99.90;;;;;;4983379;28;20030;-83
2024/02/10 05:34:14;;;;;;;6.05;3.55;;;10.70;99.90;;;;;;4983219;28;20018;-83
2024/02/10 05:36:40;;;;;;;4.65;3.28;;;10.70;99.90;;;;;;5000157;28;20101;-83
2024/02/10 05:39:09;;;;;;;5.80;3.38;;;10.70;99.90;;;;;;4996861;28;20061;-83
2024/02/10 05:41:36;;;;;;;6.50;4.10;;;10.70;99.90;;;;;;4979597;28;20034;-83
2024/02/10 05:44:02;;;;;;;4.55;3.72;;;10.70;99.90;;;;;;4979365;28;20034;-84
2024/02/10 05:46:28;;;;;;;4.50;3.47;;;10.70;99.90;;;;;;4963603;28;20479;-84
2024/02/10 05:48:55;;;;;;;6.00;3.63;;;10.70;99.90;;;;;;4963494;28;20451;-82
2024/02/10 05:51:24;;;;;;;5.70;4.15;;;10.70;99.90;;;;;;4996987;28;20041;-83
2024/02/10 05:53:52;;;;;;;5.60;3.92;;;10.70;99.90;;;;;;4963748;28;20056;-84
2024/02/10 05:56:18;;;;;;;5.47;4.10;;;10.70;99.90;;;;;;4979079;28;20498;-83
2024/02/10 05:58:44;;;;;;;5.53;3.55;;;10.70;99.90;;;;;;4963449;28;20121;-82
2024/02/10 06:01:13;;;;;;;6.28;4.13;;;10.70;99.90;;;;;;4979682;28;20489;-83
2024/02/10 06:03:41;;;;;;;6.18;3.90;;;10.70;99.90;;;;;;4979192;28;20054;-82
2024/02/10 06:06:08;;;;;;;5.80;3.55;;;10.70;99.90;;;;;;4979402;28;20022;-82
2024/02/10 06:08:37;;;;;;;4.28;3.65;;;10.70;99.90;;;;;;4979228;28;20030;-83
2024/02/10 06:11:05;;;;;;;4.85;4.15;;;10.80;99.90;;;;;;4980597;28;20030;-83
2024/02/10 06:13:32;;;;;;;4.13;3.50;;;10.80;99.90;;;;;;4978270;28;20031;-83
2024/02/10 06:15:59;;;;;;;6.03;3.78;;;10.80;99.90;;;;;;5003874;28;20038;-83
2024/02/10 06:18:27;;;;;;;4.93;3.80;;;10.80;99.90;;;;;;4987431;28;20049;-84
2024/02/10 06:20:54;;;;;;;4.60;3.70;;;10.80;99.90;;;;;;4988032;28;20098;-83
2024/02/10 06:23:25;;;;;;;4.50;3.67;;;10.80;99.90;;;;;;5003127;28;20033;-83
2024/02/10 06:25:54;;;;;;;;;;;10.80;99.90;;;;;;4964678;28;20055;-84
2024/02/10 06:28:21;;;;;;;6.50;3.60;;;10.70;99.90;;;;;;4994490;28;19910;-82
2024/02/10 06:30:49;;;;;;;5.13;3.72;;;10.70;99.90;;;;;;4996119;28;20037;-83
2024/02/10 06:33:16;;;;;;;4.60;3.38;;;10.70;99.90;;;;;;4962725;28;20179;-83
2024/02/10 06:35:43;;;;;;;6.97;4.18;;;10.70;99.90;;;;;;4978576;28;20023;-83
2024/02/10 06:38:10;;;;;;;5.32;3.67;;;10.70;99.90;;;;;;4963054;28;20026;-84
2024/02/10 06:40:37;;;;;;;4.75;3.72;;;10.70;99.90;;;;;;4978550;28;20459;-84
2024/02/10 06:43:03;;;;;;;5.15;4.10;;;10.80;99.90;;;;;;4962849;28;20034;-83
2024/02/10 06:45:30;;;;;;;5.55;3.75;;;10.80;99.90;;;;;;4946115;28;20034;-84
2024/02/10 06:47:59;;;;;;;4.80;3.92;;;10.80;99.90;;;;;;4978573;28;20160;-83
2024/02/10 06:50:26;;;;;;;5.28;3.63;;;10.80;99.90;;;;;;4977740;28;20058;-83
2024/02/10 06:52:53;;;;;;;6.38;4.20;;;10.80;99.90;;;;;;4978315;28;20026;-83
2024/02/10 06:55:19;;;;;;;7.75;4.00;;;10.80;99.90;;;;;;4961958;28;20045;-83
2024/02/10 06:57:47;;;;;;;6.32;4.38;;;10.80;99.90;;;;;;4995275;28;20022;-84
2024/02/10 07:00:14;;;;;;;7.05;4.03;;;10.80;99.90;;;;;;4977747;28;20018;-83
2024/02/10 07:02:44;;;;;;;5.97;4.05;;;10.70;99.90;;;;;;4978165;28;20026;-83
2024/02/10 07:05:15;;;;;;;5.28;3.83;;;10.80;99.90;;;;;;4977842;28;20058;-83
2024/02/10 07:07:46;;;;;;;6.43;4.35;;;10.80;99.90;;;;;;4962304;28;20030;-83
2024/02/10 07:10:17;;;;;;;5.57;3.88;;;10.80;99.90;;;;;;4961999;28;20026;-84
2024/02/10 07:12:44;;;;;;;;;;;10.80;99.90;;;;;;4978720;28;20026;-82
2024/02/10 07:15:17;;;;;;;6.13;4.20;;;10.80;99.90;;;;;;4961784;28;19992;-84
2024/02/10 07:17:43;;;;;;;5.18;3.80;;;10.70;99.90;;;;;;4977780;28;20117;-83
2024/02/10 07:20:23;;;;;;;5.60;4.05;;;10.70;99.90;;;;;;4977513;28;20456;-82
2024/02/10 07:22:58;;;;;;;6.63;4.18;;;10.70;99.90;;;;;;4977265;28;20041;-82
2024/02/10 07:25:31;;;;;;;4.90;3.50;;;10.80;99.90;;;;;;4995030;28;20033;-83
2024/02/10 07:28:04;;;;;;;4.57;3.80;;;10.80;99.90;;;;;;4961955;28;20035;-83
2024/02/10 07:30:34;;;;;;;5.63;3.63;;;10.80;99.90;;;;;;4962090;28;20125;-82
2024/02/10 07:33:08;;;;;;;4.72;3.67;;;10.80;99.90;;;;;;4994796;28;20058;-82
2024/02/10 07:35:34;;;;;;;4.72;3.60;;;10.80;99.90;;;;;;4977619;28;20030;-84
2024/02/10 07:38:01;;;;;;;7.70;4.05;;;10.80;99.90;;;;;;4977707;28;20026;-83
2024/02/10 07:40:27;;;;;;;6.97;3.90;;;10.80;99.90;;;;;;4978485;28;20038;-83
2024/02/10 07:42:53;;;;;;;5.60;4.28;;;10.80;99.90;;;;;;4963034;28;20114;-83
2024/02/10 07:45:23;;;;;;;4.93;3.80;;;10.80;99.90;;;;;;5002094;28;20087;-84
2024/02/10 07:47:55;;;;;;;5.80;3.88;;;10.80;99.90;;;;;;4985839;28;20044;-84
2024/02/10 07:50:21;;;;;;;5.53;4.15;;;10.80;99.90;;;;;;4987039;28;20053;-84
2024/02/10 07:52:47;;;;;;;5.15;4.00;;;10.80;99.90;;;;;;5002205;28;20011;-83
2024/02/10 07:55:16;;;;;;;6.60;4.05;;;10.80;99.90;;;;;;4993429;28;20129;-83
2024/02/10 07:57:42;;;;;;;5.65;4.22;;;10.80;99.90;;;;;;4977549;28;20030;-84
2024/02/10 08:00:11;;;;;;;5.45;3.75;;;10.80;99.90;;;;;;4977442;28;20038;-84
2024/02/10 08:02:37;;;;;;;4.45;4.05;;;10.80;99.90;;;;;;4977093;28;20030;-83
2024/02/10 08:05:04;;;;;;;5.05;4.35;;;10.80;99.90;;;;;;4976800;28;20093;-82
2024/02/10 08:07:30;;;;;;;5.28;4.15;;;10.80;99.90;;;;;;4976634;28;20026;-83
2024/02/10 08:09:57;;;;;;;5.00;3.75;;;10.80;99.90;;;;;;4960824;28;20033;-84
2024/02/10 08:12:23;;;;;;;5.90;4.07;;;10.80;99.90;;;;;;4976458;28;20022;-84
2024/02/10 08:14:50;;;;;;;5.55;4.43;;;10.80;99.90;;;;;;4960531;28;20117;-84
2024/02/10 08:17:38;;;;;;;4.90;4.00;;;10.90;99.90;;;;;;4960730;28;20381;-85
2024/02/10 08:20:04;;;;;;;6.57;4.25;;;10.90;99.90;;;;;;4977306;28;20085;-83
2024/02/10 08:22:36;;;;;;;6.82;4.18;;;10.90;99.90;;;;;;4960682;28;20525;-82
2024/02/10 08:25:04;;;;;;;6.60;4.18;;;10.90;99.90;;;;;;4976749;28;20485;-83
2024/02/10 08:27:31;;;;;;;5.25;3.85;;;10.90;99.90;;;;;;4960744;28;20466;-82
2024/02/10 08:29:58;;;;;;;5.10;3.60;;;10.90;99.90;;;;;;4976706;28;20061;-83
2024/02/10 08:32:26;;;;;;;6.82;4.22;;;10.90;99.90;;;;;;4993744;28;20026;-82
2024/02/10 08:34:52;;;;;;;6.00;3.90;;;10.90;99.90;;;;;;4993693;28;20034;-83
2024/02/10 08:37:19;;;;;;;4.20;3.80;;;11.00;99.90;;;;;;4994059;28;20449;-83
2024/02/10 08:39:46;;;;;;;5.03;3.47;;;11.00;99.90;;;;;;4960605;28;20137;-83
2024/02/10 08:42:12;;;;;;;5.40;3.85;;;11.00;99.90;;;;;;4976541;28;20023;-83
2024/02/10 08:44:39;;;;;;;4.57;3.80;;;11.00;99.90;;;;;;4960574;28;20120;-83
2024/02/10 08:47:05;;;;;;;5.32;3.42;;;11.00;99.90;;;;;;4960580;28;20497;-84
2024/02/10 08:49:40;;;;;;;5.28;3.05;;;11.00;99.90;;;;;;4960666;28;20038;-84
2024/02/10 08:52:15;;;;;;;6.18;4.10;;;11.00;99.90;;;;;;4977940;28;20073;-84
2024/02/10 08:54:41;;;;;;;4.88;3.42;;;11.00;99.90;;;;;;4977942;28;20596;-83
2024/02/10 08:57:09;;;;;;;4.20;3.30;;;11.00;99.90;;;;;;4976412;28;20062;-83
2024/02/10 08:59:40;;;;;;;3.22;2.92;;;11.00;99.90;;;;;;4961259;28;20378;-84
2024/02/10 09:02:06;;;;;;;5.25;3.70;;;11.10;99.90;;;;;;4962144;28;20035;-83
2024/02/10 09:04:34;;;;;;;4.85;3.45;;;11.10;99.90;;;;;;4976354;28;20108;-83
2024/02/10 09:07:00;;;;;;;5.18;3.70;;;11.10;99.90;;;;;;4976741;28;20026;-83
2024/02/10 09:09:29;;;;;;;7.03;3.80;;;11.10;99.90;;;;;;4976790;28;20101;-83
2024/02/10 09:11:55;;;;;;;5.60;3.85;;;11.10;99.90;;;;;;4994887;28;20026;-84
2024/02/10 09:14:21;;;;;;;4.95;3.40;;;11.10;99.90;;;;;;4980996;28;20023;-83
2024/02/10 09:16:47;;;;;;;4.32;3.33;;;11.20;99.90;;;;;;4981654;28;20095;-83
2024/02/10 09:19:15;;;;;;;4.95;3.95;;;11.10;99.90;;;;;;4999571;28;20042;-82
2024/02/10 09:21:41;;;;;;;4.95;4.00;;;11.20;99.90;;;;;;5004601;28;20007;-82
2024/02/10 09:24:13;;;;;;;5.70;3.50;;;11.30;99.90;;;;;;5004723;28;20014;-83
2024/02/10 09:26:40;;;;;;;4.47;3.72;;;11.20;99.90;;;;;;4987159;28;20093;-84
2024/02/10 09:29:05;;;;;;;5.55;3.63;;;11.30;99.90;;;;;;4981158;28;20036;-83
2024/02/10 09:31:31;;;;;;;4.32;3.60;;;11.30;99.90;;;;;;4979868;28;20026;-83
2024/02/10 09:34:01;;;;;;;5.80;3.50;;;11.40;99.90;;;;;;4979866;28;20030;-83
2024/02/10 09:36:28;;;;;;;5.25;3.40;;;11.40;99.90;;;;;;4979858;28;20038;-84
2024/02/10 09:38:54;;;;;;;4.68;3.50;;;11.40;99.90;;;;;;4978846;28;20095;-85
2024/02/10 09:41:24;;;;;;;5.72;3.90;;;11.50;99.90;;;;;;4978978;28;20049;-84
2024/02/10 09:43:49;;;;;;;4.55;3.97;;;11.60;99.90;;;;;;4978091;28;20033;-83
2024/02/10 09:46:15;;;;;;;3.95;3.30;;;11.60;99.90;;;;;;4977899;28;20026;-82
2024/02/10 09:48:54;;;;;;;4.93;3.90;;;11.60;99.90;;;;;;4978227;28;20066;-83
2024/02/10 09:51:20;;;;;;;5.50;3.90;;;11.70;99.90;;;;;;4978136;28;20061;-83
2024/02/10 09:53:45;;;;;;;4.35;3.50;;;11.70;99.90;;;;;;4977737;28;20054;-83
2024/02/10 09:56:13;;;;;;;5.47;3.75;;;11.70;99.90;;;;;;4978267;28;20023;-83
2024/02/10 09:58:46;;;;;;;6.10;3.60;;;11.80;99.90;;;;;;4978990;28;20072;-83
2024/02/10 10:01:15;;;;;;;4.28;3.50;;;11.80;99.90;;;;;;4979599;28;20034;-83
2024/02/10 10:03:41;;;;;;;4.03;3.40;;;11.80;99.90;;;;;;4975549;28;20391;-83
2024/02/10 10:06:10;;;;;;;4.35;3.42;;;11.80;99.90;;;;;;4975687;28;20023;-84
2024/02/10 10:08:41;;;;;;;4.95;3.90;;;11.90;99.90;;;;;;4977081;28;20054;-84
2024/02/10 10:11:10;;;;;;;;;;;11.90;99.90;;;;;;4976329;28;20023;-84
2024/02/10 10:13:40;;;;;;;4.07;3.35;;;12.00;99.90;;;;;;4975829;28;20364;-84
2024/02/10 10:16:09;;;;;;;4.47;3.50;;;12.00;99.90;;;;;;4960085;28;20462;-84
2024/02/10 10:18:35;;;;;;;6.22;3.40;;;12.00;99.90;;;;;;4959467;28;20042;-84
2024/02/10 10:21:04;;;;;;;3.67;3.20;;;12.10;99.90;;;;;;4959537;28;20030;-84
2024/02/10 10:23:33;;;;;;;5.88;3.60;;;12.10;99.90;;;;;;4958913;28;20114;-84
2024/02/10 10:25:59;;;;;;;4.55;3.50;;;12.20;99.90;;;;;;4959013;28;20537;-84
2024/02/10 10:28:25;;;;;;;4.00;3.47;;;12.20;99.90;;;;;;4959506;28;20035;-84
2024/02/10 10:30:51;;;;;;;3.70;3.00;;;12.20;99.90;;;;;;4976647;28;20510;-84
2024/02/10 10:33:18;;;;;;;3.47;3.17;;;12.30;99.90;;;;;;4976381;28;20538;-83
2024/02/10 10:35:45;;;;;;;4.70;3.20;;;12.30;99.90;;;;;;4976701;28;20026;-83
2024/02/10 10:38:21;;;;;;;4.15;2.92;;;12.40;99.90;;;;;;4959568;28;20033;-83
2024/02/10 10:40:51;;;;;;;4.50;2.88;;;12.50;99.90;;;;;;4975527;28;20175;-84
2024/02/10 10:43:19;;;;;;;5.07;3.22;;;12.50;99.90;;;;;;4976850;28;20112;-84
2024/02/10 10:45:46;;;;;;;3.42;3.00;;;12.50;99.90;;;;;;4974729;28;20039;-83
2024/02/10 10:48:12;;;;;;;4.55;3.00;;;12.60;99.90;;;;;;4975758;28;20032;-83
2024/02/10 10:50:37;;;;;;;4.70;3.42;;;12.60;99.90;;;;;;4960424;28;20497;-83
2024/02/10 10:53:07;;;;;;;3.70;2.90;;;12.60;99.90;;;;;;4987414;28;20022;-84
2024/02/10 10:55:50;;;;;;;3.65;2.92;;;12.60;99.90;;;;;;4983902;28;20007;-83
2024/02/10 10:58:20;;;;;;;2.88;2.55;;;12.70;99.90;;;;;;5000373;28;20039;-84
2024/02/10 11:00:47;;;;;;;3.60;2.58;;;12.70;99.90;;;;;;5000203;28;20011;-84
2024/02/10 11:03:14;;;;;;;3.83;2.50;;;12.70;99.90;;;;;;4989373;28;20077;-83
2024/02/10 11:05:46;;;;;;;3.47;2.70;;;12.70;99.90;;;;;;4962409;28;20031;-84
2024/02/10 11:08:27;;;;;;;3.60;2.72;;;12.80;99.90;;;;;;4995573;28;20393;-84
2024/02/10 11:11:00;;;;;;;4.10;2.63;;;12.70;99.90;;;;;;4977740;28;20029;-83
2024/02/10 11:13:30;;;;;;;5.15;2.67;;;12.80;99.90;;;;;;4995133;28;20130;-84
2024/02/10 11:16:12;;;;;;;5.43;3.25;;;12.80;99.90;;;;;;4977753;28;20201;-82
2024/02/10 11:19:00;;;;;;;4.05;2.80;;;12.80;99.90;;;;;;4977544;28;20485;-83
2024/02/10 11:21:26;;;;;;;3.63;2.70;;;12.80;99.90;;;;;;4977635;28;20034;-83
2024/02/10 11:23:56;;;;;;;3.85;2.63;;;12.90;99.90;;;;;;4977306;28;20022;-83
2024/02/10 11:26:26;;;;;;;3.50;2.63;;;12.90;99.90;;;;;;4994931;28;20050;-83
2024/02/10 11:29:18;;;;;;;3.25;2.50;;;12.90;99.90;;;;;;4977460;28;20034;-83
2024/02/10 11:31:45;;;;;;;4.00;2.80;;;13.00;99.90;;;;;;4958589;28;20039;-84
2024/02/10 11:34:16;;;;;;;6.47;2.95;;;13.00;99.90;;;;;;4977333;28;20126;-83
2024/02/10 11:36:54;;;;;;;3.45;2.65;;;13.00;99.90;;;;;;4994360;28;20166;-84
2024/02/10 11:39:24;;;;;;;4.45;2.63;;;13.00;99.90;;;;;;4977209;28;20036;-83
2024/02/10 11:41:58;;;;;;;3.75;2.10;;;13.00;99.90;;;;;;4994331;28;20022;-84
2024/02/10 11:44:30;;;;;;;3.90;2.60;;;13.10;99.90;;;;;;4960951;28;20033;-84
2024/02/10 11:46:59;;;;;;;2.90;2.08;;;13.20;99.90;;;;;;4977064;28;20018;-84
2024/02/10 11:49:26;;;;;;;2.95;1.92;;;13.20;99.90;;;;;;4976968;28;20035;-84
2024/02/10 11:51:58;;;;;;;4.82;2.38;;;13.20;99.90;;;;;;4977221;28;20167;-84
2024/02/10 11:54:27;;;;;;;2.17;1.98;;;13.30;99.90;;;;;;4994545;28;20037;-84
2024/02/10 11:56:54;;;;;;;3.83;2.20;;;13.30;99.90;;;;;;4976815;28;20467;-83
2024/02/10 11:59:20;;;;;;;3.17;2.28;;;13.30;99.90;;;;;;4977025;28;20034;-83
2024/02/10 12:01:46;;;;;;;2.85;2.08;;;13.30;99.90;;;;;;4994387;28;20030;-84
2024/02/10 12:04:17;;;;;;;3.00;2.35;;;13.30;99.90;;;;;;4994268;28;20470;-83
2024/02/10 12:06:48;;;;;;;3.50;2.00;;;13.30;99.90;;;;;;4977604;28;20516;-83
2024/02/10 12:09:15;;;;;;;3.78;2.53;;;13.40;99.90;;;;;;4994329;28;20031;-83
2024/02/10 12:11:40;;;;;;;4.85;2.83;;;13.40;99.90;;;;;;4977115;28;20442;-83
2024/02/10 12:14:13;;;;;;;3.80;2.78;;;13.40;99.90;;;;;;4960628;28;20113;-83
2024/02/10 12:16:43;;;;;;;4.10;2.30;;;13.40;99.90;;;;;;4962917;28;20019;-83
2024/02/10 12:19:08;;;;;;;4.15;2.90;;;13.40;99.90;;;;;;4977477;28;20101;-83
2024/02/10 12:21:38;;;;;;;4.82;3.72;;;13.40;99.90;;;;;;4977104;28;20030;-83
2024/02/10 12:24:04;;;;;;;5.30;2.95;;;13.40;99.90;;;;;;4961280;28;20033;-83
2024/02/10 12:26:30;;;;;;;3.92;2.95;;;13.40;99.90;;;;;;4961305;28;20033;-83
2024/02/10 12:28:56;;;;;;;4.82;3.53;;;13.40;99.90;;;;;;4964162;28;20030;-84
2024/02/10 12:31:22;;;;;;;5.13;3.20;;;13.40;99.90;;;;;;5001731;28;20029;-83
2024/02/10 12:33:50;;;;;;;3.88;3.47;;;13.40;99.90;;;;;;4985319;28;20026;-84
2024/02/10 12:36:16;;;;;;;3.88;3.13;;;13.50;99.90;;;;;;5001335;28;20126;-83
2024/02/10 12:38:42;;;;;;;6.55;3.50;;;13.50;99.90;;;;;;4984335;28;20070;-83
2024/02/10 12:41:08;;;;;;;5.18;3.85;;;13.50;99.90;;;;;;4961717;28;20031;-83
2024/02/10 12:43:36;;;;;;;6.80;3.97;;;13.50;99.90;;;;;;4976964;28;20442;-83
2024/02/10 12:46:03;;;;;;;5.38;3.65;;;13.50;99.90;;;;;;4976756;28;20031;-83
2024/02/10 12:48:29;;;;;;;4.50;3.20;;;13.50;99.90;;;;;;4997066;28;20066;-83
2024/02/10 12:50:56;;;;;;;5.07;3.83;;;13.50;99.90;;;;;;4980596;28;20061;-83
2024/02/10 12:53:24;;;;;;;4.40;3.05;;;13.50;99.90;;;;;;4980830;28;20077;-83